Cottonwood Airport (P52)
Cottonwood, AZ
Field Elevation: 3562
Lat: 34°43.80N  Long: 112°02.10W
CTAF/Unicom Freq: 122.7000
   
    
Weather Advisories
10/2/2014 06:22 Z
Altimeter 30.04" Hg
Wind 340° @ 0 KT
Gusts --
Visibility 10 SM
Temperature 18° C (64° F)
Dewpoint 2° C (36° F)
Relative Humidity 34%
Density Altitude --
Condensation Altitude 11,600 feet
  Wind and Runways
Indicated Runway = 32
History
 
 
More Info
All DigiWx sites map
NOAA Forecast
 
Airport IQ 5010
 
about DigiWx
 
FAA Disclaimer: The data displayed is for advisory purposes only and is not to be used for flight planning or operations. For official data, please call (not available) to hear the current automated AWOS voice message.
  METAR P52 020622Z AUTO 34000KT 10SM 18/02 A3004